Time;durP1;ratioP1;P1;durP2;ratioP2;P2;SDS_P1;SDS_P2;PMS_P1;PMS_P2;Temp;Humidity;BMP_temperature;BMP_pressure;BME280_temperature;BME280_humidity;BME280_pressure;Samples;Min_cycle;Max_cycle;Signal;HPM_P1;HPM_P2
2022/02/28 07:29:07;;;;;;;17.00;7.40;;;;;;;-3.56;100.00;100485.84;5107453;27;20408;-78
2022/02/28 07:31:34;;;;;;;18.50;7.13;;;;;;;-3.45;100.00;100482.75;5108706;28;20052;-77
2022/02/28 07:34:00;;;;;;;15.77;7.57;;;;;;;-3.27;100.00;100491.75;5108770;28;20289;-78
2022/02/28 07:36:27;;;;;;;14.00;7.53;;;;;;;-3.16;100.00;100477.13;5095373;28;20044;-78
2022/02/28 07:38:54;;;;;;;23.53;9.60;;;;;;;-2.91;100.00;100493.78;5107648;28;20109;-77
2022/02/28 07:41:21;;;;;;;22.87;9.50;;;;;;;-2.82;100.00;100489.00;5113302;27;20417;-78
2022/02/28 07:43:47;;;;;;;20.77;9.03;;;;;;;-2.75;100.00;100490.47;5094018;27;20411;-78
2022/02/28 07:46:15;;;;;;;17.27;8.57;;;;;;;-2.60;100.00;100486.25;5107496;28;20052;-78
2022/02/28 07:48:42;;;;;;;26.83;7.57;;;;;;;-2.46;100.00;100496.28;5107397;28;20262;-78
2022/02/28 07:51:08;;;;;;;25.37;7.67;;;;;;;-2.39;100.00;100485.28;5107050;28;20490;-78
2022/02/28 07:53:35;;;;;;;32.47;12.90;;;;;;;-2.27;100.00;100498.97;5106728;28;20094;-78
2022/02/28 07:56:01;;;;;;;17.57;9.50;;;;;;;-2.14;100.00;100492.13;5106020;28;20044;-78
2022/02/28 07:58:28;;;;;;;16.90;7.63;;;;;;;-2.20;100.00;100484.44;5103351;28;20050;-78
2022/02/28 08:00:54;;;;;;;15.37;8.10;;;;;;;-1.93;100.00;100492.94;5105573;28;20052;-77
2022/02/28 08:03:22;;;;;;;17.27;9.97;;;;;;;-1.82;100.00;100482.63;5106577;28;20409;-77
2022/02/28 08:05:49;;;;;;;23.27;10.77;;;;;;;-1.65;100.00;100499.63;5107340;28;20100;-77
2022/02/28 08:08:16;;;;;;;22.03;11.40;;;;;;;-1.55;100.00;100484.91;5107112;28;20162;-77
2022/02/28 08:10:42;;;;;;;24.03;11.83;;;;;;;-1.45;100.00;100478.16;5107950;28;20048;-77
2022/02/28 08:13:11;;;;;;;21.37;9.97;;;;;;;-1.27;98.56;100491.53;5098077;28;20042;-78
2022/02/28 08:15:38;;;;;;;23.07;10.27;;;;;;;-1.31;98.09;100471.25;5115656;27;20055;-78
2022/02/28 08:18:04;;;;;;;22.67;9.60;;;;;;;-1.08;97.40;100491.47;5116360;27;20051;-78
2022/02/28 08:20:32;;;;;;;22.60;10.43;;;;;;;-0.96;96.45;100500.66;5109411;28;20056;-78
2022/02/28 08:22:59;;;;;;;19.17;9.47;;;;;;;-0.90;96.78;100493.19;5109355;28;20430;-78
2022/02/28 08:25:25;;;;;;;16.33;8.27;;;;;;;-0.74;96.70;100498.63;5106413;28;20051;-78
2022/02/28 08:27:52;;;;;;;18.70;8.03;;;;;;;-0.58;95.56;100484.44;5108323;28;20047;-78
2022/02/28 08:30:19;;;;;;;21.10;8.67;;;;;;;-0.30;93.83;100509.69;5106735;28;20345;-78
2022/02/28 08:32:45;;;;;;;19.70;9.37;;;;;;;-0.25;94.18;100510.31;5105570;28;20048;-78
2022/02/28 08:35:12;;;;;;;16.23;8.77;;;;;;;-0.04;91.61;100511.81;5106312;28;20056;-78
2022/02/28 08:37:40;;;;;;;15.87;7.77;;;;;;;-0.02;90.23;100493.84;5106522;28;20073;-78
2022/02/28 08:40:08;;;;;;;21.70;9.70;;;;;;;0.09;90.42;100495.06;5096042;28;20044;-78
2022/02/28 08:42:34;;;;;;;17.67;8.40;;;;;;;0.22;88.11;100504.16;5092128;28;20040;-78
2022/02/28 08:45:03;;;;;;;16.17;7.77;;;;;;;0.25;86.99;100484.41;5086976;28;20060;-78
2022/02/28 08:47:30;;;;;;;14.02;7.68;;;;;;;0.67;82.19;100502.47;5092597;28;20123;-78
2022/02/28 08:49:56;;;;;;;9.63;6.55;;;;;;;0.78;79.50;100482.25;5090945;28;20048;-78
2022/02/28 08:52:23;;;;;;;13.45;6.82;;;;;;;1.02;79.35;100504.03;5091107;28;21224;-78
2022/02/28 08:54:51;;;;;;;9.32;6.10;;;;;;;1.07;77.47;100496.63;5092614;28;20055;-78
2022/02/28 08:57:17;;;;;;;17.60;8.40;;;;;;;1.18;76.73;100487.94;5092241;28;20406;-78
2022/02/28 08:59:44;;;;;;;13.48;7.85;;;;;;;1.25;74.13;100491.97;5089841;28;20044;-78
2022/02/28 09:02:11;;;;;;;10.80;6.93;;;;;;;1.33;75.59;100500.41;5089896;28;20048;-78
2022/02/28 09:04:38;;;;;;;22.27;8.18;;;;;;;1.50;74.18;100517.25;5084505;28;20048;-78
2022/02/28 09:07:04;;;;;;;13.48;8.23;;;;;;;1.50;75.81;100506.53;5092858;28;20054;-78
2022/02/28 09:09:31;;;;;;;13.35;7.05;;;;;;;1.65;72.90;100507.44;5087554;28;20054;-78
2022/02/28 09:11:59;;;;;;;16.48;7.22;;;;;;;1.68;74.69;100501.88;5090675;28;20044;-78
2022/02/28 09:14:25;;;;;;;14.40;7.55;;;;;;;1.85;73.85;100512.41;5091240;28;20040;-78
2022/02/28 09:16:52;;;;;;;11.13;6.78;;;;;;;1.88;73.16;100503.28;5092813;28;20054;-78
2022/02/28 09:19:18;;;;;;;21.38;8.27;;;;;;;1.91;73.16;100498.63;5091993;28;20052;-78
2022/02/28 09:21:45;;;;;;;13.30;7.47;;;;;;;2.10;73.50;100511.72;5091974;28;20119;-78
2022/02/28 09:24:12;;;;;;;17.85;7.50;;;;;;;2.03;71.88;100496.09;5089883;28;20089;-78
2022/02/28 09:26:38;;;;;;;14.45;7.10;;;;;;;2.17;72.12;100501.47;5091638;28;20055;-78
2022/02/28 09:29:07;;;;;;;17.92;7.85;;;;;;;2.11;71.58;100499.19;5087200;28;20083;-78
2022/02/28 09:31:33;;;;;;;18.02;7.95;;;;;;;2.19;70.96;100504.91;5092118;28;20059;-78
2022/02/28 09:34:00;;;;;;;16.13;7.88;;;;;;;2.33;71.41;100498.63;5091616;28;20056;-78
2022/02/28 09:36:27;;;;;;;14.02;7.45;;;;;;;2.42;72.57;100492.66;5093300;28;20059;-78
2022/02/28 09:38:53;;;;;;;12.10;7.05;;;;;;;2.42;68.69;100476.56;5084147;28;20055;-78
2022/02/28 09:41:20;;;;;;;20.80;8.32;;;;;;;2.55;69.91;100487.38;5088011;28;20047;-78
2022/02/28 09:43:47;;;;;;;22.35;8.20;;;;;;;2.68;67.94;100486.56;5087449;28;20044;-78
2022/02/28 09:46:16;;;;;;;16.80;7.85;;;;;;;2.76;67.08;100498.50;5092159;28;20055;-78
2022/02/28 09:48:45;;;;;;;14.20;7.47;;;;;;;2.88;67.92;100496.00;5091380;28;20399;-79
2022/02/28 09:51:11;;;;;;;15.35;7.72;;;;;;;2.90;67.43;100484.16;5090922;28;20048;-78
2022/02/28 09:53:38;;;;;;;14.05;7.18;;;;;;;3.00;64.76;100479.03;5089054;28;20048;-78
2022/02/28 09:56:05;;;;;;;17.05;8.63;;;;;;;3.23;65.38;100500.78;5091496;28;20079;-78
2022/02/28 09:58:33;;;;;;;15.38;7.85;;;;;;;3.22;63.87;100494.53;5091956;28;20380;-78
2022/02/28 10:01:01;;;;;;;14.50;7.45;;;;;;;3.24;63.10;100499.81;5086945;28;20044;-78
2022/02/28 10:03:29;;;;;;;12.88;7.28;;;;;;;3.22;64.09;100483.78;5090719;28;20051;-78
2022/02/28 10:06:01;;;;;;;13.77;7.47;;;;;;;3.27;63.72;100483.50;5091462;28;20084;-78
2022/02/28 10:08:39;;;;;;;11.85;7.43;;;;;;;3.39;63.05;100484.44;5088457;28;20046;-78
2022/02/28 10:11:07;;;;;;;14.32;7.97;;;;;;;3.41;61.10;100488.75;5091101;28;20044;-78
2022/02/28 10:13:34;;;;;;;13.18;7.82;;;;;;;3.40;62.46;100476.28;5090844;28;20048;-78
2022/02/28 10:16:03;;;;;;;12.93;7.35;;;;;;;3.58;62.88;100492.94;5089394;28;20040;-79
2022/02/28 10:18:30;;;;;;;18.80;8.52;;;;;;;3.58;63.38;100479.50;5085551;28;20055;-78
2022/02/28 10:20:57;;;;;;;17.13;8.82;;;;;;;3.69;62.63;100486.84;5090959;28;20197;-78
2022/02/28 10:23:24;;;;;;;18.85;7.90;;;;;;;3.81;62.64;100490.47;5090683;28;20052;-78
2022/02/28 10:25:53;;;;;;;17.60;7.93;;;;;;;3.92;63.12;100490.59;5089009;28;20469;-78
2022/02/28 10:28:22;;;;;;;12.55;7.18;;;;;;;3.82;63.70;100484.13;5083069;28;20045;-78
2022/02/28 10:30:53;;;;;;;18.83;8.38;;;;;;;3.78;62.78;100486.19;5084485;28;21116;-78
2022/02/28 10:33:20;;;;;;;14.70;8.23;;;;;;;3.87;61.87;100468.53;5083156;28;20059;-79
2022/02/28 10:36:01;;;;;;;15.07;7.60;;;;;;;3.97;60.32;100466.03;5083418;28;20051;-79
2022/02/28 10:38:28;;;;;;;13.40;7.70;;;;;;;4.07;60.34;100478.72;5083253;28;20040;-79
2022/02/28 10:40:56;;;;;;;15.73;8.60;;;;;;;4.12;60.31;100467.59;5090838;28;20131;-79
2022/02/28 10:43:27;;;;;;;16.48;8.75;;;;;;;4.22;59.11;100465.13;5077648;28;20048;-78
2022/02/28 10:45:54;;;;;;;15.88;8.80;;;;;;;4.47;56.62;100463.31;5090892;28;20067;-79
2022/02/28 10:48:21;;;;;;;14.55;7.38;;;;;;;4.41;57.44;100461.91;5086573;28;20105;-79
2022/02/28 10:50:50;;;;;;;13.55;7.22;;;;;;;4.57;58.07;100462.50;5089266;28;20491;-79
2022/02/28 10:53:19;;;;;;;17.50;8.45;;;;;;;4.74;58.77;100461.25;5089599;28;20052;-79
2022/02/28 10:55:48;;;;;;;14.20;7.60;;;;;;;4.83;57.34;100454.28;5091030;28;20052;-79
2022/02/28 10:58:16;;;;;;;14.63;7.32;;;;;;;5.06;57.80;100457.94;5090400;28;20290;-79
2022/02/28 11:00:57;;;;;;;17.40;8.43;;;;;;;5.03;54.16;100449.22;5090456;28;20516;-80
2022/02/28 11:03:24;;;;;;;15.55;7.78;;;;;;;5.09;54.96;100462.25;5084950;28;20044;-78
2022/02/28 11:05:54;;;;;;;12.85;6.97;;;;;;;5.04;52.41;100440.16;5088948;28;20052;-79
2022/02/28 11:08:22;;;;;;;13.20;6.90;;;;;;;5.04;52.97;100430.22;5090000;28;20051;-77
2022/02/28 11:10:49;;;;;;;14.65;7.47;;;;;;;5.07;54.44;100432.72;5090701;28;20059;-78
2022/02/28 11:13:16;;;;;;;15.40;7.00;;;;;;;5.23;53.72;100426.13;5089691;28;20056;-78
2022/02/28 11:15:43;;;;;;;10.95;6.40;;;;;;;5.39;53.43;100428.47;5082436;28;20483;-78
2022/02/28 11:18:13;;;;;;;19.42;8.32;;;;;;;5.54;53.97;100439.88;5091911;28;20047;-78
2022/02/28 11:20:40;;;;;;;15.88;7.40;;;;;;;5.67;53.34;100433.41;5088830;28;20101;-77
2022/02/28 11:23:08;;;;;;;13.75;7.82;;;;;;;5.83;51.91;100430.31;5089500;28;20050;-78
2022/02/28 11:25:35;;;;;;;13.38;6.97;;;;;;;5.78;52.50;100428.97;5088649;28;20052;-78
2022/02/28 11:28:02;;;;;;;14.85;7.18;;;;;;;5.82;51.63;100423.19;5090251;28;20048;-78
2022/02/28 11:30:30;;;;;;;11.20;5.95;;;;;;;5.95;51.47;100423.09;5089835;28;20062;-78
2022/02/28 11:32:59;;;;;;;16.42;7.03;;;;;;;5.91;50.49;100404.56;5090321;28;20115;-78
2022/02/28 11:35:44;;;;;;;14.07;6.88;;;;;;;6.15;50.35;100424.19;5090931;28;20040;-78
2022/02/28 11:38:43;;;;;;;16.25;6.10;;;;;;;6.19;51.39;100419.41;5082943;28;20088;-78
2022/02/28 11:41:10;;;;;;;12.38;6.93;;;;;;;6.35;48.18;100416.28;5085035;28;20051;-78
2022/02/28 11:43:38;;;;;;;15.02;7.50;;;;;;;6.38;48.08;100407.91;5089036;28;20044;-77
2022/02/28 11:46:17;;;;;;;10.48;6.00;;;;;;;6.33;46.79;100386.69;5090022;28;20495;-78
2022/02/28 11:48:46;;;;;;;11.48;6.38;;;;;;;6.45;48.24;100397.47;5095984;28;20043;-78
2022/02/28 11:51:26;;;;;;;14.00;6.93;;;;;;;6.60;48.93;100406.16;5084710;28;20036;-78
2022/02/28 11:53:56;;;;;;;13.30;6.30;;;;;;;6.73;47.35;100391.47;5081560;28;20048;-78
2022/02/28 11:56:57;;;;;;;11.25;6.18;;;;;;;6.74;44.02;100386.91;5088138;28;20085;-78
2022/02/28 11:59:33;;;;;;;12.52;6.57;;;;;;;6.79;45.64;100402.72;5084412;28;20056;-78
2022/02/28 12:02:02;;;;;;;13.48;6.57;;;;;;;6.86;45.72;100398.53;5088509;28;20048;-78
2022/02/28 12:04:37;;;;;;;15.15;5.88;;;;;;;6.91;46.81;100386.34;5090122;28;20056;-78
2022/02/28 12:07:05;;;;;;;14.38;6.43;;;;;;;7.00;45.35;100373.88;5082767;28;20140;-78
2022/02/28 12:09:48;;;;;;;13.93;6.60;;;;;;;7.14;46.04;100382.66;5089810;28;20039;-79
2022/02/28 12:12:17;;;;;;;14.43;6.32;;;;;;;7.17;45.02;100369.72;5089886;28;20512;-79
2022/02/28 12:15:22;;;;;;;12.05;5.53;;;;;;;7.34;43.67;100378.19;5089356;28;20501;-79
2022/02/28 12:17:59;;;;;;;12.55;6.60;;;;;;;7.38;44.93;100376.94;5091215;28;20514;-78
2022/02/28 12:20:28;;;;;;;11.15;5.78;;;;;;;7.50;43.75;100370.44;5093820;28;20062;-78
2022/02/28 12:23:16;;;;;;;10.65;5.50;;;;;;;7.61;44.16;100369.50;5097926;28;20131;-79
2022/02/28 12:25:46;;;;;;;11.52;6.35;;;;;;;7.62;41.99;100361.25;5092367;28;20052;-79
2022/02/28 12:28:31;;;;;;;13.82;6.90;;;;;;;7.64;40.38;100361.09;5093009;28;20048;-79
2022/02/28 12:31:02;;;;;;;13.90;6.40;;;;;;;7.62;43.38;100353.13;5092929;28;20044;-79
2022/02/28 12:33:57;;;;;;;12.65;5.90;;;;;;;7.66;42.00;100356.41;5097872;28;20127;-78
2022/02/28 12:36:29;;;;;;;11.85;6.50;;;;;;;7.73;43.70;100329.66;5088219;28;20090;-79
2022/02/28 12:38:57;;;;;;;11.45;6.13;;;;;;;8.01;41.55;100340.69;5089922;28;20055;-79
2022/02/28 12:41:28;;;;;;;11.57;6.30;;;;;;;7.96;42.21;100341.09;5089417;28;20406;-78
2022/02/28 12:43:59;;;;;;;16.67;5.57;;;;;;;7.98;41.51;100339.97;5090547;28;20055;-78
2022/02/28 12:46:27;;;;;;;;;;;;;;;8.07;41.53;100343.69;5083635;28;20048;-78
2022/02/28 12:48:53;;;;;;;11.48;6.10;;;;;;;8.03;41.84;100326.00;5084497;28;19928;-79
2022/02/28 12:51:22;;;;;;;12.38;5.70;;;;;;;8.05;40.95;100336.69;5080657;28;20044;-79
2022/02/28 12:53:51;;;;;;;12.50;6.10;;;;;;;8.05;42.21;100336.69;5083206;28;20052;-79
2022/02/28 12:56:23;;;;;;;10.77;6.50;;;;;;;8.21;42.50;100331.59;5081753;28;20036;-79
2022/02/28 12:58:53;;;;;;;10.98;6.20;;;;;;;8.26;42.16;100340.13;5086293;28;20048;-79
2022/02/28 13:01:21;;;;;;;12.15;5.93;;;;;;;8.36;44.86;100337.47;5087870;28;20072;-79
2022/02/28 13:03:50;;;;;;;10.18;5.95;;;;;;;8.44;41.16;100339.47;5088923;28;20055;-80
2022/02/28 13:06:18;;;;;;;11.30;5.67;;;;;;;8.30;41.15;100322.63;5091688;28;20070;-80
2022/02/28 13:08:46;;;;;;;12.52;6.10;;;;;;;8.43;41.22;100332.31;5091527;28;20066;-79
2022/02/28 13:11:14;;;;;;;16.05;6.03;;;;;;;8.35;40.54;100319.47;5094972;28;20060;-80
2022/02/28 13:13:42;;;;;;;11.55;6.60;;;;;;;8.38;40.56;100327.31;5093834;28;20058;-80
2022/02/28 13:16:10;;;;;;;9.75;6.78;;;;;;;8.43;39.02;100316.94;5092650;28;20044;-80
2022/02/28 13:18:37;;;;;;;13.20;6.15;;;;;;;8.50;40.25;100309.09;5090214;28;20551;-80
2022/02/28 13:21:05;;;;;;;13.13;5.47;;;;;;;8.47;39.76;100309.38;5091038;28;20048;-80
2022/02/28 13:23:33;;;;;;;10.48;5.57;;;;;;;8.61;40.50;100317.09;5091666;28;20039;-80
2022/02/28 13:26:00;;;;;;;10.45;6.10;;;;;;;8.72;41.60;100316.06;5092313;28;20056;-80
2022/02/28 13:28:35;;;;;;;10.80;5.95;;;;;;;8.60;38.52;100314.53;5098273;28;20491;-80
2022/02/28 13:31:03;;;;;;;12.40;6.10;;;;;;;8.69;38.99;100310.94;5092471;28;20529;-80
2022/02/28 13:33:32;;;;;;;10.30;5.82;;;;;;;8.62;37.42;100298.97;5084638;28;20051;-80
2022/02/28 13:36:00;;;;;;;17.42;5.63;;;;;;;8.85;37.54;100316.63;5092329;28;20052;-80
2022/02/28 13:38:27;;;;;;;9.85;5.20;;;;;;;8.75;37.46;100285.97;5092090;28;20048;-80
2022/02/28 13:40:54;;;;;;;8.55;4.40;;;;;;;8.78;35.87;100311.94;5091999;28;20072;-80
2022/02/28 13:43:21;;;;;;;10.10;5.28;;;;;;;8.72;36.41;100298.97;5091456;28;20105;-80
2022/02/28 13:45:50;;;;;;;11.25;5.30;;;;;;;8.82;36.49;100305.19;5085636;28;20048;-80
2022/02/28 13:48:22;;;;;;;10.05;5.55;;;;;;;8.89;37.85;100283.78;5091311;28;20048;-81
2022/02/28 13:50:54;;;;;;;9.88;5.70;;;;;;;9.03;37.08;100305.88;5091003;28;20475;-80
2022/02/28 13:53:21;;;;;;;7.50;5.70;;;;;;;9.08;37.07;100291.00;5091312;28;20478;-80
2022/02/28 13:55:50;;;;;;;9.45;5.70;;;;;;;9.06;35.90;100291.16;5094073;28;20384;-80
2022/02/28 13:58:17;;;;;;;8.25;5.00;;;;;;;8.94;35.45;100282.34;5091612;28;20121;-80
2022/02/28 14:00:52;;;;;;;11.45;5.55;;;;;;;8.92;36.11;100295.19;5088528;28;20055;-80
2022/02/28 14:03:21;;;;;;;10.02;5.25;;;;;;;9.08;35.98;100296.44;5090660;28;20062;-80
2022/02/28 14:05:50;;;;;;;10.93;5.45;;;;;;;9.20;38.05;100292.56;5091916;28;20064;-80
2022/02/28 14:08:18;;;;;;;9.43;4.95;;;;;;;9.21;34.11;100295.13;5088538;28;20052;-81
2022/02/28 14:10:46;;;;;;;6.57;4.03;;;;;;;9.31;31.90;100302.38;5092582;28;20044;-80
2022/02/28 14:13:15;;;;;;;8.98;4.15;;;;;;;9.15;32.44;100290.28;5083551;28;20136;-80
2022/02/28 14:15:42;;;;;;;10.17;4.90;;;;;;;9.13;34.13;100288.72;5090448;28;20039;-80
2022/02/28 14:18:10;;;;;;;9.68;4.70;;;;;;;9.29;35.61;100294.38;5091213;28;20373;-80
2022/02/28 14:20:38;;;;;;;10.70;4.60;;;;;;;9.26;35.40;100278.38;5090387;28;20048;-80
2022/02/28 14:23:08;;;;;;;8.98;4.10;;;;;;;9.38;32.46;100289.91;5091488;28;20047;-81
2022/02/28 14:25:35;;;;;;;8.25;4.22;;;;;;;9.27;30.95;100290.09;5090766;28;20503;-80
2022/02/28 14:28:03;;;;;;;7.90;4.45;;;;;;;9.22;31.13;100282.41;5091031;28;20054;-80
2022/02/28 14:30:31;;;;;;;7.72;4.97;;;;;;;9.42;33.50;100287.75;5090993;28;20135;-80
2022/02/28 14:33:08;;;;;;;9.25;4.50;;;;;;;9.40;32.18;100290.59;5088259;28;20062;-80
2022/02/28 14:35:35;;;;;;;7.50;4.60;;;;;;;9.31;32.58;100277.94;5090565;28;20056;-80
2022/02/28 14:38:02;;;;;;;6.65;3.60;;;;;;;9.31;32.73;100286.09;5090749;28;20071;-80
2022/02/28 14:40:30;;;;;;;7.68;4.78;;;;;;;9.26;32.30;100258.53;5097353;28;20051;-80
2022/02/28 14:43:01;;;;;;;9.55;5.00;;;;;;;9.36;33.02;100268.34;5091129;28;20044;-80
2022/02/28 14:45:29;;;;;;;7.25;4.10;;;;;;;9.41;32.76;100270.63;5090132;28;20082;-80
2022/02/28 14:47:56;;;;;;;8.77;4.43;;;;;;;9.38;31.42;100258.19;5090697;28;20047;-80
2022/02/28 14:50:22;;;;;;;5.82;3.42;;;;;;;9.49;31.37;100284.28;5084706;28;20406;-80
2022/02/28 14:52:49;;;;;;;5.95;4.05;;;;;;;9.41;29.08;100267.03;5090799;28;20055;-80
2022/02/28 14:55:17;;;;;;;7.20;3.30;;;;;;;9.36;30.85;100267.47;5089370;28;20135;-81
2022/02/28 14:57:45;;;;;;;6.97;3.55;;;;;;;9.16;28.95;100259.41;5090652;28;20052;-80
2022/02/28 15:00:13;;;;;;;6.47;3.80;;;;;;;9.18;29.00;100264.69;5090562;28;20131;-80
2022/02/28 15:02:39;;;;;;;7.88;3.38;;;;;;;9.28;29.63;100267.38;5090357;28;20491;-80
2022/02/28 15:05:06;;;;;;;6.93;3.70;;;;;;;9.29;29.08;100263.66;5087722;28;20044;-80
2022/02/28 15:07:33;;;;;;;6.70;3.55;;;;;;;9.19;30.00;100261.84;5087915;28;20080;-81
2022/02/28 15:10:00;;;;;;;5.78;3.28;;;;;;;9.08;29.34;100250.31;5089832;28;20044;-80
2022/02/28 15:12:26;;;;;;;6.65;3.90;;;;;;;9.15;30.17;100244.16;5090313;28;20082;-80
2022/02/28 15:14:54;;;;;;;7.85;4.07;;;;;;;9.21;29.99;100248.13;5080389;28;20048;-80
2022/02/28 15:17:21;;;;;;;8.80;3.97;;;;;;;9.14;31.23;100249.75;5090634;28;20050;-80
2022/02/28 15:19:47;;;;;;;4.72;3.28;;;;;;;9.17;31.08;100244.88;5089253;28;20054;-80
2022/02/28 15:22:14;;;;;;;6.82;3.25;;;;;;;9.17;31.24;100238.59;5088135;28;20044;-80
2022/02/28 15:24:40;;;;;;;7.15;4.13;;;;;;;9.20;30.85;100243.72;5092628;28;20491;-80
2022/02/28 15:27:07;;;;;;;7.18;3.75;;;;;;;9.24;29.90;100255.13;5090366;28;20510;-80
2022/02/28 15:29:35;;;;;;;9.30;4.05;;;;;;;9.10;30.20;100251.03;5089497;28;20506;-80
2022/02/28 15:32:03;;;;;;;6.97;3.42;;;;;;;8.87;30.85;100240.56;5083124;28;20054;-80
2022/02/28 15:34:30;;;;;;;7.18;3.97;;;;;;;9.01;31.32;100253.63;5089842;28;20047;-80
2022/02/28 15:36:56;;;;;;;6.70;3.90;;;;;;;8.89;31.10;100241.25;5083499;28;20071;-80
2022/02/28 15:39:23;;;;;;;8.02;3.80;;;;;;;8.99;32.17;100249.38;5085825;28;20051;-80
2022/02/28 15:41:50;;;;;;;6.47;3.92;;;;;;;8.93;31.34;100252.69;5085965;28;20078;-80
2022/02/28 15:44:16;;;;;;;6.55;4.05;;;;;;;8.70;33.17;100244.00;5088741;28;20071;-80
2022/02/28 15:46:44;;;;;;;9.18;4.15;;;;;;;8.73;31.99;100251.84;5088972;28;20062;-80
2022/02/28 15:49:13;;;;;;;6.05;3.60;;;;;;;8.58;32.09;100241.50;5087475;28;20051;-80
2022/02/28 15:51:41;;;;;;;5.40;3.28;;;;;;;8.52;30.64;100250.22;5093897;28;20056;-80
2022/02/28 15:54:08;;;;;;;7.40;3.47;;;;;;;8.49;30.17;100251.34;5095004;28;20059;-80
2022/02/28 15:56:34;;;;;;;4.68;3.28;;;;;;;8.43;30.66;100251.00;5086706;28;20048;-80
2022/02/28 15:59:02;;;;;;;4.82;3.15;;;;;;;8.44;30.02;100244.63;5092110;28;20048;-80
2022/02/28 16:01:28;;;;;;;5.45;3.25;;;;;;;8.38;29.22;100261.44;5094208;28;20048;-79
2022/02/28 16:03:55;;;;;;;4.82;3.15;;;;;;;8.33;29.87;100253.75;5088426;28;20048;-80
2022/02/28 16:06:23;;;;;;;6.97;3.28;;;;;;;8.22;28.79;100257.47;5088345;28;20068;-80
2022/02/28 16:08:50;;;;;;;5.43;2.80;;;;;;;8.08;29.46;100255.16;5090819;28;20052;-78
2022/02/28 16:11:16;;;;;;;6.13;2.70;;;;;;;8.02;29.84;100258.44;5094038;28;20040;-80
2022/02/28 16:13:43;;;;;;;6.22;3.20;;;;;;;7.92;32.50;100253.03;5087220;28;20131;-80
2022/02/28 16:16:10;;;;;;;8.68;3.50;;;;;;;7.86;31.45;100259.88;5078431;28;20064;-80
2022/02/28 16:18:37;;;;;;;6.18;2.90;;;;;;;7.77;32.44;100250.72;5075470;28;20049;-81
2022/02/28 16:21:04;;;;;;;7.05;4.13;;;;;;;7.68;32.75;100254.28;5082807;28;20059;-80
2022/02/28 16:23:32;;;;;;;6.75;3.85;;;;;;;7.67;33.41;100247.16;5087454;28;20082;-80
2022/02/28 16:25:59;;;;;;;7.13;4.13;;;;;;;7.59;34.07;100260.53;5083950;28;20052;-80
2022/02/28 16:28:27;;;;;;;6.63;3.58;;;;;;;7.47;34.24;100251.66;5084080;28;20040;-80
2022/02/28 16:30:53;;;;;;;6.03;3.50;;;;;;;7.37;34.35;100245.38;5089130;28;20048;-80
2022/02/28 16:33:20;;;;;;;6.22;3.47;;;;;;;7.33;35.57;100261.03;5080462;28;20036;-80
2022/02/28 16:35:46;;;;;;;3.97;2.95;;;;;;;7.24;35.92;100260.00;5074174;28;20048;-80
2022/02/28 16:38:13;;;;;;;8.10;3.63;;;;;;;7.04;36.43;100245.53;5089084;28;20132;-80
2022/02/28 16:40:41;;;;;;;8.68;3.80;;;;;;;6.87;36.41;100248.88;5088184;28;20163;-81
2022/02/28 16:43:08;;;;;;;7.47;3.78;;;;;;;6.76;37.73;100247.13;5074685;28;20052;-80
2022/02/28 16:45:35;;;;;;;7.97;3.92;;;;;;;6.75;37.72;100261.59;5085520;28;20048;-80
2022/02/28 16:48:02;;;;;;;7.47;4.00;;;;;;;6.58;39.48;100265.78;5088263;28;20165;-80
2022/02/28 16:50:28;;;;;;;12.10;4.22;;;;;;;6.30;41.52;100262.72;5087098;28;20612;-80
2022/02/28 16:52:55;;;;;;;10.85;4.47;;;;;;;6.01;41.73;100249.00;5090158;28;20132;-79
2022/02/28 16:55:21;;;;;;;6.13;4.07;;;;;;;5.91;42.66;100261.50;5091498;28;20063;-80
2022/02/28 16:57:49;;;;;;;6.80;3.83;;;;;;;5.68;43.80;100257.03;5087338;28;20124;-80
2022/02/28 17:00:16;;;;;;;7.43;4.40;;;;;;;5.65;44.04;100267.22;5091458;28;20483;-80
2022/02/28 17:02:44;;;;;;;7.18;3.88;;;;;;;5.49;44.60;100259.53;5087903;28;20054;-79
2022/02/28 17:05:11;;;;;;;8.82;4.38;;;;;;;5.48;44.82;100268.63;5092615;28;20039;-80
2022/02/28 17:07:40;;;;;;;9.95;4.13;;;;;;;5.30;45.91;100279.91;5089443;28;20048;-80
2022/02/28 17:10:07;;;;;;;8.68;4.35;;;;;;;5.04;46.62;100265.81;5092169;28;20885;-80
2022/02/28 17:12:33;;;;;;;12.45;6.15;;;;;;;4.94;46.42;100256.75;5086836;28;20514;-80
2022/02/28 17:15:01;;;;;;;11.40;4.13;;;;;;;4.83;47.56;100278.28;5072289;28;20131;-80
2022/02/28 17:17:28;;;;;;;8.20;4.30;;;;;;;4.65;47.30;100273.38;5090619;28;20082;-80
2022/02/28 17:19:55;;;;;;;6.68;3.97;;;;;;;4.59;48.61;100285.50;5093002;28;20135;-80
2022/02/28 17:22:22;;;;;;;6.32;3.75;;;;;;;4.38;48.10;100281.75;5092837;28;20048;-80
2022/02/28 17:24:48;;;;;;;8.18;3.55;;;;;;;4.23;48.42;100281.97;5091956;28;20071;-80
2022/02/28 17:27:15;;;;;;;6.53;4.13;;;;;;;4.20;48.39;100292.09;5091516;28;20396;-80
2022/02/28 17:29:43;;;;;;;6.53;4.32;;;;;;;4.00;49.09;100270.22;5086669;28;20480;-80
2022/02/28 17:32:11;;;;;;;78.38;35.25;;;;;;;3.98;49.44;100282.09;5080873;28;20136;-79
2022/02/28 17:34:41;;;;;;;37.22;18.60;;;;;;;3.91;50.33;100292.44;5090839;28;20048;-79
2022/02/28 17:37:11;;;;;;;14.02;6.60;;;;;;;3.68;50.99;100284.25;5090023;28;20151;-80
2022/02/28 17:39:39;;;;;;;;;;;;;;;3.65;50.06;100289.00;5083023;28;20044;-80
2022/02/28 17:42:06;;;;;;;7.20;4.10;;;;;;;3.65;52.26;100291.69;5085395;28;19924;-80
2022/02/28 17:44:34;;;;;;;8.27;4.15;;;;;;;3.53;50.69;100275.47;5077407;28;20128;-80
2022/02/28 17:47:00;;;;;;;8.02;4.60;;;;;;;3.41;51.45;100279.06;5087311;28;20110;-79
2022/02/28 17:49:28;;;;;;;9.48;4.18;;;;;;;3.25;52.21;100273.97;5092363;28;20044;-79
2022/02/28 17:51:55;;;;;;;6.35;4.18;;;;;;;3.28;53.13;100289.00;5091079;28;20198;-79
2022/02/28 17:54:22;;;;;;;9.10;4.15;;;;;;;3.13;52.89;100283.75;5091149;28;20102;-79
2022/02/28 17:56:48;;;;;;;15.40;4.85;;;;;;;3.16;53.46;100293.41;5089996;28;20054;-80
2022/02/28 17:59:15;;;;;;;9.27;4.60;;;;;;;3.07;53.21;100288.69;5091837;28;20052;-80
2022/02/28 18:01:42;;;;;;;8.93;5.25;;;;;;;2.96;54.61;100289.47;5090826;28;20418;-79
2022/02/28 18:04:08;;;;;;;8.68;4.60;;;;;;;2.91;55.08;100289.78;5090466;28;20040;-79
2022/02/28 18:06:37;;;;;;;8.48;4.93;;;;;;;2.82;55.69;100285.06;5088225;28;20288;-79
2022/02/28 18:09:05;;;;;;;11.02;5.10;;;;;;;2.78;56.38;100284.41;5089134;28;20054;-79
2022/02/28 18:11:32;;;;;;;11.55;5.38;;;;;;;2.72;56.45;100290.22;5090146;28;20142;-80
2022/02/28 18:13:59;;;;;;;10.02;5.60;;;;;;;2.61;56.40;100285.59;5103558;28;20044;-80
2022/02/28 18:16:26;;;;;;;11.35;6.40;;;;;;;2.55;56.93;100294.06;5092128;28;20054;-80
2022/02/28 18:18:54;;;;;;;9.93;5.43;;;;;;;2.50;57.25;100293.53;5089356;28;20040;-80
2022/02/28 18:21:22;;;;;;;10.35;5.07;;;;;;;2.33;58.27;100291.16;5090415;28;20044;-79
2022/02/28 18:23:51;;;;;;;9.88;5.07;;;;;;;2.27;58.28;100301.34;5089839;28;20410;-79
2022/02/28 18:26:18;;;;;;;6.43;4.13;;;;;;;2.26;58.04;100299.63;5086721;28;20376;-79
2022/02/28 18:28:45;;;;;;;10.32;5.47;;;;;;;2.23;58.67;100307.88;5086613;28;20047;-79
2022/02/28 18:31:12;;;;;;;9.55;5.50;;;;;;;2.18;59.04;100319.88;5097681;28;20047;-79
2022/02/28 18:33:39;;;;;;;7.93;5.57;;;;;;;2.06;58.68;100309.00;5089122;28;20041;-79
2022/02/28 18:36:06;;;;;;;8.90;5.28;;;;;;;2.01;58.73;100303.06;5090628;28;20054;-79
2022/02/28 18:38:32;;;;;;;8.10;4.88;;;;;;;1.98;59.53;100305.97;5088792;28;20140;-79
2022/02/28 18:41:01;;;;;;;7.00;4.65;;;;;;;2.00;59.57;100317.44;5092831;28;20516;-80
2022/02/28 18:43:28;;;;;;;11.60;4.70;;;;;;;1.84;59.53;100314.94;5089629;28;20051;-80
2022/02/28 18:45:56;;;;;;;7.47;4.18;;;;;;;1.89;59.44;100323.53;5092908;28;20048;-80
2022/02/28 18:48:28;;;;;;;10.68;5.20;;;;;;;1.85;61.81;100329.19;5090768;28;20082;-79
2022/02/28 18:51:00;;;;;;;10.57;4.82;;;;;;;1.86;61.24;100323.72;5084255;28;20048;-79
2022/02/28 18:53:27;;;;;;;10.60;4.60;;;;;;;1.65;62.72;100322.44;5094987;28;20055;-79
2022/02/28 18:55:54;;;;;;;9.70;4.72;;;;;;;1.65;63.82;100330.50;5090325;28;20513;-79
2022/02/28 18:58:22;;;;;;;8.77;4.45;;;;;;;1.55;64.89;100314.13;5090986;28;20048;-79
2022/02/28 19:00:49;;;;;;;12.50;4.72;;;;;;;1.49;65.49;100323.44;5090777;28;20040;-79